AirNav   ATP
 
 963 users online  

AR45 St Vincent Infirmary Heliport
Little Rock, Arkansas, USA

GOING TO LITTLE ROCK?


FAA INFORMATION EFFECTIVE 20 JULY 2017

Location

FAA Identifier: AR45
Lat/Long: 34-45-02.3310N / 092-20-26.5480W
34-45.038850N / 092-20.442467W
34.7506475 / -92.3407078
(estimated)
Elevation: 435 ft. / 133 m (estimated)
Variation: 04E (1985)
From city: 3 miles NW of LITTLE ROCK, AR
Time zone: UTC -5 (UTC -6 during Standard Time)
Zip code: 72205

Heliport Operations

Heliport use: Private use, MEDICAL.
Activation date: 10/1985
Control tower: no
ARTCC: MEMPHIS CENTER
FSS: JONESBORO FLIGHT SERVICE STATION
Attendance: CONTINUOUS
Wind indicator: lighted
Segmented circle: no
Lights: FREQ 155.34 AVBL FOR HEL AMBULANCES FOR PERIMETER LGTS.
Beacon: white-green-yellow (heliport)
Operates sunset to sunrise.

Heliport Communications

WX ASOS at LIT (6 nm E): PHONE 501-376-0247
WX AWOS-2 at SUZ (12 nm SW): 132.125 (501-847-3883)
WX AWOS-2 at CXW (19 nm NW): 118.775 (501-358-6209)

Nearby radio navigation aids

VOR radial/distance  VOR name  Freq  Var
LITr294/9.0LITTLE ROCK VORTAC113.9005E
PBFr322/36.5PINE BLUFF VOR/DME116.0004E

 
NDB name  Hdg/Dist  Freq  Var  ID
LASKY335/5.235305ELI .-.. ..
TONEYVILLE232/19.929001ETYV - -.-- ...-
MORRILTON121/36.341007EMPJ -- .--. .---

Heliport Services

Runway Information

Helipad H1

Dimensions: 40 x 40 ft. / 12 x 12 m
Surface: concrete
Runway edge lights: PERIMETER LGTS ON HELIPAD.
Latitude: 34-45.038850N
Longitude: 092-20.442467W
Elevation: 435.0 ft.
Traffic pattern: leftleft

Heliport Ownership and Management from official FAA records

Ownership: Privately-owned
Owner: ST VINCENT INFIRMARY MED CTR
TWO ST VINCENT CIRCLE
LITTLE ROCK, AR 72205
Phone 501-660-3000
Manager: PAUL GASKIN
TWO ST VINCENT CIRCLE
LITTLE ROCK, AR 72205
Phone 501-552-3538

Instrument Procedures

There are no published instrument procedures at AR45.

Some nearby airports with instrument procedures:

KLIT - Bill and Hillary Clinton National Airport/Adams Field (6 nm E)
KORK - North Little Rock Municipal Airport (7 nm NE)
KSUZ - Saline County Regional Airport (12 nm SW)
KLRF - Little Rock Air Force Base (14 nm NE)
KCXW - Cantrell Field Airport (19 nm NW)
 
Loc | Ops | Rwys | IFR | FBO | Links
Com | Nav | Svcs | Stats | Notes

Fly Arkansas
AirBoss

 
Area around AR45 (St Vincent Infirmary Heliport)
 
Road maps at: MapQuest Bing Google
 
Aerial photo
No photo
 
Sectional chart

 
Airport distance calculator
Flying to St Vincent Infirmary Heliport? Find the distance to fly.

From to AR45

Sunrise and sunset
Times for 22-Jul-2017
 Local
(UTC-5)
 Zulu
(UTC)
Morning civil twilight05:4510:45
Sunrise06:1311:13
Sunset20:1901:19
Evening civil twilight20:4701:47

Current date and time
Zulu (UTC)  22-Jul-2017 14:11:12
Local (UTC-5)  22-Jul-2017 09:11:12
 
METAR
KLIT 
5nm E 
221353Z 22005KT 10SM CLR 29/25 A2998 RMK AO2 SLP151 T02940250
KLRF 
14nm NE 
221358Z AUTO 21006KT 10SM CLR 31/25 A2997 RMK AO2 SLP148 T03050253
KCXW 
19nm NW 
221355Z AUTO 18006KT 9SM 30/25 A2995 RMK A01
TAF
KLIT 
5nm E 
221120Z 2212/2312 21004KT P6SM FEW050 SCT250 TEMPO 2212/2214 5SM BR FM221500 20007KT P6SM SCT045 SCT250 FM230000 VRB04KT P6SM BKN250
KLRF 
14nm NE 
220700Z 2207/2313 22009KT 9999 FEW050 SCT070 QNH2987INS BECMG 2223/2224 19006KT 9999 FEW060 SCT070 QNH2986INS TX37/2221Z TN25/2211Z
NOTAMs
Click for the latest NOTAMs
NOTAMs are issued by the DoD/FAA and will open in a separate window not controlled by AirNav.

 

 
 

Would you like to see your business listed on this page?

 If your business provides an interesting product or service to pilots, flight crews, aircraft, or users of the St Vincent Infirmary Heliport, you should consider listing it here.  To start the listing process, click on the button below
 
Add a business
 

Other Pages about St Vincent Infirmary Heliport

Update a link
 
Copyright © AirNav, LLC. All rights reserved. Privacy Policy  Contact